createdAt,value
2018-03-29T03:32:33.355Z,89.00
2018-03-29T03:35:07.185Z,89.80
2018-03-29T03:37:41.739Z,89.20
2018-03-29T03:40:16.190Z,89.80
2018-03-29T03:42:49.928Z,89.70
2018-03-29T03:45:24.512Z,89.20
2018-03-29T03:47:58.252Z,89.20
2018-03-29T03:50:32.056Z,90.00
2018-03-29T03:53:06.533Z,90.30
2018-03-29T03:55:40.291Z,90.10
2018-03-29T03:58:35.818Z,90.10
2018-03-29T04:01:09.708Z,90.10
2018-03-29T04:03:44.248Z,90.20
2018-03-29T04:06:18.428Z,90.10
2018-03-29T04:08:52.181Z,89.90
2018-03-29T04:11:26.045Z,90.20
2018-03-29T04:13:59.960Z,90.40
2018-03-29T04:16:34.544Z,90.40
2018-03-29T04:19:08.268Z,90.40
2018-03-29T04:21:42.066Z,90.30
2018-03-29T04:24:15.876Z,90.30
2018-03-29T04:26:49.684Z,90.50
2018-03-29T04:29:23.436Z,90.10
2018-03-29T04:31:58.512Z,90.70
2018-03-29T04:34:32.274Z,90.60
2018-03-29T04:37:06.084Z,90.80
2018-03-29T04:39:41.631Z,91.10
2018-03-29T04:42:15.302Z,91.00
2018-03-29T04:44:49.253Z,90.90
2018-03-29T04:47:23.099Z,91.40
2018-03-29T04:49:56.811Z,91.50
2018-03-29T04:52:30.754Z,91.80
2018-03-29T04:55:04.521Z,91.80
2018-03-29T04:57:44.187Z,92.40
2018-03-29T05:00:21.792Z,92.30
2018-03-29T05:02:58.698Z,92.20
2018-03-29T05:05:37.277Z,92.60
2018-03-29T05:08:15.731Z,92.60
2018-03-29T05:10:53.026Z,92.30
2018-03-29T05:13:31.069Z,92.20
2018-03-29T05:16:09.054Z,92.20
2018-03-29T05:18:45.777Z,92.20
2018-03-29T05:21:22.833Z,92.20
2018-03-29T05:23:59.933Z,92.30
2018-03-29T05:26:41.110Z,92.30
2018-03-29T05:29:19.060Z,92.30
2018-03-29T05:31:56.290Z,91.70
2018-03-29T05:34:34.311Z,91.90
2018-03-29T05:37:13.017Z,91.90
2018-03-29T05:39:47.012Z,91.70
2018-03-29T05:42:20.731Z,91.70
2018-03-29T05:44:54.763Z,91.90
2018-03-29T05:47:29.344Z,91.80
2018-03-29T05:50:03.845Z,92.00
2018-03-29T05:52:38.329Z,91.40
2018-03-29T05:55:12.072Z,91.40
2018-03-29T05:57:46.209Z,91.80
2018-03-29T06:00:20.038Z,91.80
2018-03-29T06:02:54.542Z,91.90
2018-03-29T06:05:29.168Z,91.70
2018-03-29T06:08:02.945Z,91.70
2018-03-29T06:10:36.847Z,92.10
2018-03-29T06:13:10.605Z,92.20
2018-03-29T06:15:44.539Z,91.90
2018-03-29T06:18:18.292Z,91.80
2018-03-29T06:20:52.017Z,91.50
2018-03-29T06:23:26.622Z,91.00
2018-03-29T06:26:00.348Z,91.00
2018-03-29T06:28:35.059Z,90.90
2018-03-29T06:31:08.840Z,90.90
2018-03-29T06:33:43.366Z,90.50
2018-03-29T06:36:17.812Z,90.70
2018-03-29T06:38:51.528Z,90.70
2018-03-29T06:41:25.335Z,90.40
2018-03-29T06:43:58.928Z,89.80
2018-03-29T06:46:32.760Z,88.50
2018-03-29T06:49:06.496Z,88.10
2018-03-29T06:51:40.257Z,87.10
2018-03-29T06:54:14.084Z,86.20
2018-03-29T06:56:47.980Z,86.60
2018-03-29T06:59:21.739Z,85.30
2018-03-29T07:01:55.532Z,83.30
2018-03-29T07:04:30.042Z,84.00
2018-03-29T07:07:03.813Z,84.00
2018-03-29T07:09:37.471Z,82.20
2018-03-29T07:12:11.256Z,81.60
2018-03-29T07:14:44.974Z,81.50
2018-03-29T07:17:19.060Z,80.00
2018-03-29T07:19:52.731Z,80.40
2018-03-29T07:22:26.379Z,80.90
2018-03-29T07:25:00.845Z,75.50
2018-03-29T07:27:34.564Z,75.50
2018-03-29T07:30:09.240Z,75.20
2018-03-29T07:32:43.184Z,75.10
2018-03-29T07:35:17.913Z,75.20
2018-03-29T07:37:52.529Z,74.10
2018-03-29T07:40:26.236Z,74.10
2018-03-29T07:42:59.952Z,71.30
2018-03-29T07:45:33.700Z,71.80
2018-03-29T07:48:07.640Z,72.00
2018-03-29T07:50:41.355Z,70.80
2018-03-29T07:53:15.240Z,72.40
2018-03-29T07:55:48.825Z,71.20
2018-03-29T07:58:22.654Z,70.80
2018-03-29T08:00:56.360Z,68.80
2018-03-29T08:03:30.572Z,70.20
2018-03-29T08:06:04.204Z,69.60
2018-03-29T08:08:38.801Z,68.80
2018-03-29T08:11:12.672Z,68.80
2018-03-29T08:13:46.420Z,68.10
2018-03-29T08:16:20.167Z,67.40
2018-03-29T08:18:53.873Z,66.80
2018-03-29T08:21:27.655Z,66.40
2018-03-29T08:24:01.463Z,65.00
2018-03-29T08:26:35.944Z,62.00
2018-03-29T08:29:09.885Z,62.10
2018-03-29T08:31:43.633Z,59.50
2018-03-29T08:34:17.687Z,57.10
2018-03-29T08:36:52.083Z,54.10
2018-03-29T08:39:25.941Z,54.20
2018-03-29T08:42:00.417Z,45.60
2018-03-29T08:44:34.581Z,45.50
2018-03-29T08:47:08.369Z,43.50
2018-03-29T08:49:42.992Z,46.10
2018-03-29T08:52:17.007Z,46.20
2018-03-29T08:54:50.804Z,48.30
2018-03-29T08:57:24.508Z,48.90
2018-03-29T08:59:58.609Z,49.00
2018-03-29T09:02:32.616Z,50.80
2018-03-29T09:05:06.356Z,52.30
2018-03-29T09:07:40.138Z,55.10
2018-03-29T09:10:13.844Z,53.20
2018-03-29T09:12:47.659Z,53.00
2018-03-29T09:15:22.264Z,50.10
2018-03-29T09:17:56.036Z,50.10
2018-03-29T09:20:29.791Z,50.10
2018-03-29T09:23:03.679Z,48.10
2018-03-29T09:25:37.500Z,46.30
2018-03-29T09:28:11.623Z,46.80
2018-03-29T09:30:45.403Z,46.30
2018-03-29T09:33:19.171Z,42.30
2018-03-29T09:35:53.031Z,41.40
2018-03-29T09:38:26.835Z,39.90
2018-03-29T09:41:00.675Z,38.50
2018-03-29T09:43:37.610Z,38.40
2018-03-29T09:46:11.205Z,38.20
2018-03-29T09:48:44.976Z,36.90
2018-03-29T09:51:18.685Z,37.90
2018-03-29T09:53:52.400Z,38.90
2018-03-29T09:56:26.858Z,39.00
2018-03-29T09:59:01.380Z,37.50
2018-03-29T10:01:35.794Z,36.80
2018-03-29T10:04:13.255Z,36.00
2018-03-29T10:06:47.726Z,37.60
2018-03-29T10:09:21.444Z,37.60
2018-03-29T10:11:55.923Z,40.90
2018-03-29T10:14:29.569Z,40.90
2018-03-29T10:17:03.255Z,40.10
2018-03-29T10:19:37.052Z,40.70
2018-03-29T10:22:10.772Z,40.50
2018-03-29T10:24:45.586Z,40.00
2018-03-29T10:27:19.220Z,38.10
2018-03-29T10:29:53.032Z,36.80
2018-03-29T10:32:30.596Z,35.40
2018-03-29T10:35:04.369Z,35.20
2018-03-29T10:37:39.057Z,36.30
2018-03-29T10:40:13.544Z,37.30
2018-03-29T10:42:47.701Z,37.30
2018-03-29T10:45:22.783Z,39.70
2018-03-29T10:47:57.586Z,39.70
2018-03-29T10:50:31.488Z,38.20
2018-03-29T10:53:06.173Z,38.50
2018-03-29T10:55:39.984Z,38.50
2018-03-29T10:58:14.188Z,39.10
2018-03-29T11:00:47.961Z,38.20
2018-03-29T11:03:21.722Z,38.40
2018-03-29T11:05:57.400Z,37.90
2018-03-29T11:08:31.456Z,37.80
2018-03-29T11:11:05.959Z,38.70
2018-03-29T11:13:40.018Z,38.60
2018-03-29T11:16:13.674Z,40.40
2018-03-29T11:18:48.234Z,42.80
2018-03-29T11:21:22.039Z,42.80
2018-03-29T11:23:55.756Z,43.10
2018-03-29T11:26:30.669Z,44.60
2018-03-29T11:29:05.284Z,44.60
2018-03-29T11:31:39.081Z,44.30
2018-03-29T11:34:13.723Z,44.90
2018-03-29T11:36:47.608Z,45.10
2018-03-29T11:39:21.481Z,43.70
2018-03-29T11:41:56.069Z,44.30
2018-03-29T11:44:29.828Z,44.30
2018-03-29T11:47:03.700Z,45.00
2018-03-29T11:49:37.469Z,44.40
2018-03-29T11:52:11.288Z,43.70
2018-03-29T11:54:45.867Z,44.70
2018-03-29T11:57:20.512Z,46.20
2018-03-29T11:59:54.366Z,45.60
2018-03-29T12:02:28.161Z,46.30
2018-03-29T12:05:01.976Z,46.20
2018-03-29T12:07:36.663Z,45.70
2018-03-29T12:10:11.100Z,45.50
2018-03-29T12:12:44.847Z,45.50
2018-03-29T12:15:18.659Z,45.00
2018-03-29T12:17:52.472Z,44.90
2018-03-29T12:20:27.248Z,44.40
2018-03-29T12:23:00.909Z,44.00
2018-03-29T12:25:34.798Z,45.70
2018-03-29T12:28:08.634Z,46.20
2018-03-29T12:30:42.599Z,47.50
2018-03-29T12:33:17.184Z,47.70
2018-03-29T12:35:51.009Z,48.10
2018-03-29T12:38:24.849Z,48.60
2018-03-29T12:40:58.630Z,49.30
2018-03-29T12:43:32.512Z,50.80
2018-03-29T12:46:06.208Z,50.50
2018-03-29T12:48:39.957Z,50.20
2018-03-29T12:51:14.070Z,49.80
2018-03-29T12:53:47.932Z,50.70
2018-03-29T12:56:23.191Z,52.80
2018-03-29T12:58:56.967Z,53.30
2018-03-29T13:01:30.852Z,53.10
2018-03-29T13:04:05.526Z,53.20
2018-03-29T13:06:39.388Z,52.70
2018-03-29T13:09:14.375Z,53.60
2018-03-29T13:11:48.159Z,53.60
2018-03-29T13:14:23.004Z,52.40
2018-03-29T13:16:56.817Z,52.80
2018-03-29T13:19:30.660Z,51.50
2018-03-29T13:22:05.199Z,52.40
2018-03-29T13:24:39.863Z,51.00
2018-03-29T13:27:13.660Z,50.60
2018-03-29T13:29:47.664Z,51.10
2018-03-29T13:32:21.540Z,50.30
2018-03-29T13:34:56.267Z,50.60
2018-03-29T13:37:30.084Z,50.90
2018-03-29T13:40:04.564Z,52.90
2018-03-29T13:42:39.366Z,53.00
2018-03-29T13:45:13.340Z,52.50
2018-03-29T13:47:47.012Z,53.10
2018-03-29T13:50:20.811Z,51.80
2018-03-29T13:52:54.590Z,52.70
2018-03-29T13:55:28.828Z,52.60
2018-03-29T13:58:02.734Z,53.60
2018-03-29T14:00:36.531Z,53.40
2018-03-29T14:03:10.376Z,54.10
2018-03-29T14:05:44.195Z,54.40
2018-03-29T14:08:17.963Z,54.50
2018-03-29T14:10:52.564Z,55.20
2018-03-29T14:13:27.079Z,54.70
2018-03-29T14:16:01.018Z,54.70
2018-03-29T14:18:35.605Z,53.20
2018-03-29T14:21:09.427Z,53.20
2018-03-29T14:23:43.121Z,54.20
2018-03-29T14:26:16.985Z,52.90
2018-03-29T14:28:51.556Z,52.20
2018-03-29T14:31:25.388Z,52.20
2018-03-29T14:33:59.170Z,52.80
2018-03-29T14:36:33.201Z,51.90
2018-03-29T14:39:06.876Z,52.40
2018-03-29T14:41:40.906Z,53.20
2018-03-29T14:44:14.836Z,52.40
2018-03-29T14:46:49.690Z,53.90
2018-03-29T14:49:24.267Z,53.40
2018-03-29T14:51:57.942Z,53.40
2018-03-29T14:54:32.633Z,51.50
2018-03-29T14:57:07.202Z,52.00
2018-03-29T14:59:41.444Z,51.90
2018-03-29T15:02:15.288Z,52.10
2018-03-29T15:04:49.884Z,51.30
2018-03-29T15:07:24.491Z,52.00
2018-03-29T15:09:58.254Z,51.70
2018-03-29T15:12:32.031Z,51.00
2018-03-29T15:15:06.640Z,51.30
2018-03-29T15:17:41.819Z,51.30
2018-03-29T15:20:15.688Z,50.40
2018-03-29T15:22:49.541Z,50.40
2018-03-29T15:25:23.931Z,51.20
2018-03-29T15:27:57.592Z,50.30
2018-03-29T15:30:31.458Z,50.60
2018-03-29T15:33:05.918Z,50.30
2018-03-29T15:35:39.809Z,50.30
2018-03-29T15:38:14.342Z,51.70
2018-03-29T15:40:48.905Z,50.90
2018-03-29T15:43:23.496Z,51.50
2018-03-29T15:45:57.361Z,51.50
2018-03-29T15:48:31.140Z,52.60
2018-03-29T15:51:05.224Z,53.40
2018-03-29T15:53:38.977Z,52.40
2018-03-29T15:56:12.972Z,52.30
2018-03-29T15:58:46.679Z,52.70
2018-03-29T16:01:21.181Z,52.30
2018-03-29T16:03:55.019Z,51.80
2018-03-29T16:06:28.832Z,51.70
2018-03-29T16:09:02.609Z,51.60
2018-03-29T16:11:36.503Z,52.10
2018-03-29T16:14:10.291Z,50.90
2018-03-29T16:16:44.364Z,52.20
2018-03-29T16:19:18.029Z,51.60
2018-03-29T16:21:51.893Z,52.70
2018-03-29T16:24:25.700Z,52.80
2018-03-29T16:27:00.276Z,52.40
2018-03-29T16:29:34.691Z,53.40
2018-03-29T16:32:09.212Z,53.10
2018-03-29T16:34:43.073Z,53.10
2018-03-29T16:37:16.850Z,53.60
2018-03-29T16:39:50.726Z,52.20
2018-03-29T16:42:24.461Z,52.30
2018-03-29T16:44:58.173Z,52.30
2018-03-29T16:47:32.061Z,52.20
2018-03-29T16:50:05.884Z,52.30
2018-03-29T16:52:39.866Z,51.70
2018-03-29T16:55:14.525Z,51.60
2018-03-29T16:57:48.316Z,51.60
2018-03-29T17:00:22.120Z,51.20
2018-03-29T17:02:57.473Z,51.50
2018-03-29T17:05:32.290Z,53.10
2018-03-29T17:08:06.011Z,53.10
2018-03-29T17:10:39.837Z,53.80
2018-03-29T17:13:13.648Z,53.70
2018-03-29T17:15:47.528Z,53.30
2018-03-29T17:18:22.540Z,52.50
2018-03-29T17:20:56.245Z,52.50
2018-03-29T17:23:30.038Z,52.60
2018-03-29T17:26:04.564Z,53.60
2018-03-29T17:28:39.004Z,53.80
2018-03-29T17:31:12.691Z,53.70
2018-03-29T17:33:47.145Z,54.60
2018-03-29T17:36:20.820Z,54.60
2018-03-29T17:38:54.555Z,54.50
2018-03-29T17:41:28.242Z,54.40
2018-03-29T17:44:03.067Z,55.80
2018-03-29T17:46:36.712Z,55.80
2018-03-29T17:49:11.708Z,56.20
2018-03-29T17:51:45.393Z,57.00
2018-03-29T17:54:19.125Z,57.60
2018-03-29T17:56:53.722Z,58.30
2018-03-29T17:59:27.447Z,58.30
2018-03-29T18:02:01.152Z,58.80
2018-03-29T18:04:35.683Z,60.60
2018-03-29T18:07:09.407Z,60.60
2018-03-29T18:09:43.198Z,61.00
2018-03-29T18:12:16.855Z,61.50
2018-03-29T18:14:50.659Z,62.50
2018-03-29T18:17:24.982Z,66.40
2018-03-29T18:19:58.768Z,67.50
2018-03-29T18:22:32.544Z,69.60
2018-03-29T18:25:06.381Z,71.80
2018-03-29T18:27:40.205Z,72.80
2018-03-29T18:30:14.088Z,73.40
2018-03-29T18:32:47.965Z,73.10
2018-03-29T18:35:21.745Z,74.30
2018-03-29T18:37:56.121Z,73.90
2018-03-29T18:40:29.980Z,73.80
2018-03-29T18:43:03.655Z,75.00
2018-03-29T18:45:37.756Z,74.60
2018-03-29T18:48:12.364Z,77.20
2018-03-29T18:50:46.224Z,76.60
2018-03-29T18:53:20.795Z,77.60
2018-03-29T18:55:56.184Z,78.10
2018-03-29T18:58:30.064Z,78.00
2018-03-29T19:01:03.965Z,77.60
2018-03-29T19:03:37.596Z,77.70
2018-03-29T19:06:11.676Z,79.80
2018-03-29T19:08:45.465Z,79.80
2018-03-29T19:11:19.328Z,79.90
2018-03-29T19:13:53.035Z,80.30
2018-03-29T19:16:26.908Z,80.60
2018-03-29T19:19:00.635Z,80.20
2018-03-29T19:21:34.459Z,80.50
2018-03-29T19:24:08.352Z,80.60
2018-03-29T19:26:42.174Z,79.90
2018-03-29T19:29:15.988Z,80.60
2018-03-29T19:31:50.580Z,80.10
2018-03-29T19:34:25.104Z,81.00
2018-03-29T19:36:59.508Z,81.20
2018-03-29T19:39:34.066Z,81.20
2018-03-29T19:42:07.764Z,81.20
2018-03-29T19:44:41.672Z,80.60
2018-03-29T19:47:15.773Z,80.40
2018-03-29T19:49:49.847Z,80.10
2018-03-29T19:52:23.881Z,80.30
2018-03-29T19:54:58.696Z,81.10
2018-03-29T19:57:32.901Z,81.00
2018-03-29T20:00:07.657Z,80.90
2018-03-29T20:02:41.307Z,80.90
2018-03-29T20:05:15.827Z,83.10
2018-03-29T20:07:50.308Z,83.40
2018-03-29T20:10:24.071Z,83.40
2018-03-29T20:12:57.826Z,83.50
2018-03-29T20:15:31.820Z,83.40
2018-03-29T20:18:05.746Z,83.20
2018-03-29T20:20:40.250Z,81.60
2018-03-29T20:23:14.812Z,81.40
2018-03-29T20:25:48.548Z,81.40
2018-03-29T20:28:22.288Z,81.40
2018-03-29T20:30:56.023Z,82.60
2018-03-29T20:33:29.840Z,82.20
2018-03-29T20:36:04.464Z,82.50
2018-03-29T20:38:38.296Z,82.40
2018-03-29T20:41:12.879Z,83.10
2018-03-29T20:43:47.040Z,83.00
2018-03-29T20:46:20.814Z,82.80
2018-03-29T20:48:54.384Z,83.60
2018-03-29T20:51:29.756Z,83.70
2018-03-29T20:54:04.138Z,83.60
2018-03-29T20:56:37.924Z,84.20
2018-03-29T20:59:11.700Z,84.50
